EGGW/LTN METAR and TAF weather

Enter ICAO airport designator
Station Type Date Time Source
EGGW METAR 2020/07/07 09:20 UTC NOAA

EGGW 070920Z AUTO 24008KT 9999 BKN031 18/10 Q1020


Station Type Date Time Source
EGGW Decoded METAR 2020/07/07 09:20 UTC NOAA

Luton Airport , United Kingdom (EGGW) 51-52N 000-22W
Jul 07, 2020 - 05:20 AM EDT / 2020.07.07 0920 UTC
Wind: from the WSW (240 degrees) at 9 MPH (8 KT):0
Visibility: greater than 7 mile(s):0
Sky conditions: mostly cloudy
Temperature: 64 F (18 C)
Dew Point: 50 F (10 C)
Relative Humidity: 59%
Pressure (altimeter): 30.12 in. Hg (1020 hPa)
ob: EGGW 070920Z AUTO 24008KT 9999 BKN031 18/10 Q1020
cycle: 9

Station Type Date Time Source
EGGW TAF 2020/07/07 06:09 UTC NOAA

TAF EGGW 070455Z 0706/0806 26008KT 9999 SCT030 PROB30
TEMPO 0719/0723 7000 RA
BECMG 0720/0723 -RA BKN010
TEMPO 0723/0806 7000 RA BKN006 PROB30
TEMPO 0723/0806 3000 RADZ BR BKN004

Example: see airport list